Hovedside
METAR-TAF:

METAR-TAF

Lufthavner :

Joensuu, Finland

Joensuu lufthavn

breddegrad: 62-40N, lengdegrad: 029-38E, høyde over havet: 119 m

Gjeldene værobservasjon

Denne rapporten ble laget for 28 minutter siden, klokken 20:20 UTC
Vind 16 kt fra Vest-nordvest med vindkast opp mot 26 kt, skiftende mellom Vest og Nord-nordvest
Temperatur 3°C
Luftfuktighet 56%
Trykk 995 hPa
Sikt 10 km eller mer
ingen skyer under 1500 m og ingen bygeskyer

METAR: EFJO 262020Z 29016G26KT 260V340 CAVOK 03/M05 Q0995

Tid: 23:48 (20:48 UTC)

Varsel

Denne rapporten ble laget for 18 minutter siden, klokken 20:30 UTC
Varsel gyldig fra 26. klokken 21 UTC til 26. klokken 24 UTC
Vind 15 kt fra Vest
Sikt 10 km eller mer
Spredte skyer i en høyde av 3000 ft
Midlertidig
fra 26. klokken 21 UTC til 26. klokken 24 UTC
Vind 15 kt fra Vest-nordvest med vindkast opp mot 25 kt

TAF: EFJO 262030Z 2621/2624 27015KT 9999 SCT030 TEMPO 2621/2624 29015G25KT

Værobservasjoner og værvarsel for over 4000 flyplasser (METAR- og TAF-rapporter).

Tilgjengelige stasjoner er representert av de røde og gule prikkene på kartet.

Hold musepekeren over prikken for å se navnet på stasjonen.

Klikk så for å se værobservasjoner og -varsler.

For å forandre kartet kan du klikke på den grønne knappen med svart kryss for å zoome inn, på den grønne knappen med strek for å zoome ut, eller på de grønne pilene for å se tilstøtende kart.


METAR-TAF: